createdAt,value
2022-12-18T00:01:29.386Z,-9.40
2022-12-18T00:03:57.632Z,-9.30
2022-12-18T00:06:26.656Z,-9.30
2022-12-18T00:08:54.462Z,-9.30
2022-12-18T00:11:23.854Z,-9.20
2022-12-18T00:13:51.774Z,-9.20
2022-12-18T00:16:23.078Z,-9.20
2022-12-18T00:18:56.338Z,-9.20
2022-12-18T00:21:23.555Z,-9.10
2022-12-18T00:23:51.146Z,-9.10
2022-12-18T00:26:32.376Z,-9.00
2022-12-18T00:29:01.166Z,-9.00
2022-12-18T00:31:28.719Z,-9.00
2022-12-18T00:33:59.441Z,-9.00
2022-12-18T00:36:28.705Z,-9.00
2022-12-18T00:38:57.322Z,-8.90
2022-12-18T00:41:43.186Z,-8.80
2022-12-18T00:44:13.272Z,-8.90
2022-12-18T00:46:40.789Z,-8.80
2022-12-18T00:49:07.784Z,-8.80
2022-12-18T00:51:34.889Z,-8.80
2022-12-18T00:54:01.851Z,-8.80
2022-12-18T00:56:28.838Z,-8.80
2022-12-18T00:58:55.748Z,-8.80
2022-12-18T01:01:23.210Z,-8.70
2022-12-18T01:03:50.231Z,-8.80
2022-12-18T01:06:17.771Z,-8.70
2022-12-18T01:08:45.173Z,-8.70
2022-12-18T01:11:15.304Z,-8.70
2022-12-18T01:13:42.494Z,-8.70
2022-12-18T01:16:12.010Z,-8.70
2022-12-18T01:18:38.984Z,-8.60
2022-12-18T01:21:13.962Z,-8.60
2022-12-18T01:23:41.316Z,-8.60
2022-12-18T01:26:11.011Z,-8.50
2022-12-18T01:28:38.648Z,-8.60
2022-12-18T01:31:28.974Z,-8.50
2022-12-18T01:33:56.847Z,-8.50
2022-12-18T01:36:30.153Z,-8.60
2022-12-18T01:38:57.822Z,-8.60
2022-12-18T01:41:27.543Z,-8.70
2022-12-18T01:43:58.349Z,-8.50
2022-12-18T01:46:26.615Z,-8.70
2022-12-18T01:49:04.350Z,-8.80
2022-12-18T01:51:31.904Z,-8.90
2022-12-18T01:53:59.904Z,-9.00
2022-12-18T01:56:26.822Z,-9.10
2022-12-18T01:59:03.704Z,-9.20
2022-12-18T02:01:32.246Z,-9.20
2022-12-18T02:04:26.572Z,-9.30
2022-12-18T02:07:21.156Z,-9.30
2022-12-18T02:09:58.516Z,-9.40
2022-12-18T02:12:31.374Z,-9.50
2022-12-18T02:15:11.951Z,-9.50
2022-12-18T02:17:49.051Z,-9.70
2022-12-18T02:20:23.399Z,-9.70
2022-12-18T02:23:11.835Z,-9.80
2022-12-18T02:25:48.675Z,-9.90
2022-12-18T02:28:20.080Z,-10.00
2022-12-18T02:30:49.935Z,-10.10
2022-12-18T02:33:18.114Z,-10.20
2022-12-18T02:35:46.675Z,-10.20
2022-12-18T02:38:15.657Z,-10.30
2022-12-18T02:40:44.194Z,-10.30
2022-12-18T02:43:14.276Z,-10.30
2022-12-18T02:45:50.787Z,-10.40
2022-12-18T02:48:21.893Z,-10.50
2022-12-18T02:51:07.494Z,-10.50
2022-12-18T02:53:56.926Z,-10.50
2022-12-18T02:56:35.983Z,-10.50
2022-12-18T02:59:08.890Z,-10.50
2022-12-18T03:01:42.350Z,-10.40
2022-12-18T03:04:22.601Z,-10.30
2022-12-18T03:06:54.312Z,-10.10
2022-12-18T03:09:29.040Z,-10.00
2022-12-18T03:12:26.196Z,-9.80
2022-12-18T03:15:20.618Z,-9.60
2022-12-18T03:17:57.485Z,-9.50
2022-12-18T03:20:27.002Z,-9.40
2022-12-18T03:23:01.355Z,-9.30
2022-12-18T03:25:31.223Z,-9.20
2022-12-18T03:28:02.366Z,-9.20
2022-12-18T03:30:31.301Z,-9.30
2022-12-18T03:33:13.418Z,-9.30
2022-12-18T03:35:42.550Z,-9.40
2022-12-18T03:38:11.062Z,-9.50
2022-12-18T03:41:01.401Z,-9.50
2022-12-18T03:43:47.807Z,-9.40
2022-12-18T03:46:42.009Z,-9.30
2022-12-18T03:49:14.305Z,-9.30
2022-12-18T03:52:04.968Z,-9.20
2022-12-18T03:54:34.126Z,-9.20
2022-12-18T03:57:24.643Z,-9.20
2022-12-18T03:59:53.195Z,-9.30
2022-12-18T04:02:25.793Z,-9.30
2022-12-18T04:04:57.204Z,-9.40
2022-12-18T04:07:25.260Z,-9.50
2022-12-18T04:09:57.504Z,-9.60
2022-12-18T04:12:28.185Z,-9.70
2022-12-18T04:14:55.140Z,-9.80
2022-12-18T04:17:23.605Z,-9.90
2022-12-18T04:19:51.318Z,-10.00
2022-12-18T04:22:18.311Z,-10.00
2022-12-18T04:24:45.341Z,-10.10
2022-12-18T04:27:12.321Z,-10.20
2022-12-18T04:29:39.360Z,-10.30
2022-12-18T04:32:06.403Z,-10.40
2022-12-18T04:34:33.294Z,-10.40
2022-12-18T04:37:00.314Z,-10.50
2022-12-18T04:39:27.345Z,-10.60
2022-12-18T04:41:54.325Z,-10.60
2022-12-18T04:44:21.349Z,-10.70
2022-12-18T04:46:48.419Z,-10.70
2022-12-18T04:49:15.690Z,-10.80
2022-12-18T04:51:42.663Z,-10.80
2022-12-18T04:54:09.625Z,-10.90
2022-12-18T04:56:36.710Z,-11.00
2022-12-18T04:59:03.655Z,-11.00
2022-12-18T05:01:34.488Z,-11.10
2022-12-18T05:04:03.036Z,-11.20
2022-12-18T05:06:30.525Z,-11.20
2022-12-18T05:08:57.627Z,-11.20
2022-12-18T05:11:24.868Z,-11.30
2022-12-18T05:13:52.102Z,-11.40
2022-12-18T05:16:19.135Z,-11.40
2022-12-18T05:18:46.201Z,-11.40
2022-12-18T05:21:13.222Z,-11.40
2022-12-18T05:23:40.465Z,-11.50
2022-12-18T05:26:09.037Z,-11.50
2022-12-18T05:28:37.309Z,-11.60
2022-12-18T05:31:06.050Z,-11.50
2022-12-18T05:33:35.376Z,-11.60
2022-12-18T05:36:03.997Z,-11.70
2022-12-18T05:41:05.698Z,-11.80
2022-12-18T05:43:34.348Z,-11.80
2022-12-18T05:46:15.859Z,-11.90
2022-12-18T05:48:44.120Z,-11.90
2022-12-18T05:51:13.725Z,-11.90
2022-12-18T05:53:41.194Z,-12.00
2022-12-18T05:56:12.145Z,-12.00
2022-12-18T05:58:39.145Z,-12.00
2022-12-18T06:01:09.309Z,-12.00
2022-12-18T06:03:36.566Z,-12.10
2022-12-18T06:06:04.046Z,-12.20
2022-12-18T06:08:31.177Z,-12.20
2022-12-18T06:10:58.102Z,-12.30
2022-12-18T06:13:25.037Z,-12.30
2022-12-18T06:15:52.015Z,-12.30
2022-12-18T06:18:18.934Z,-12.30
2022-12-18T06:20:45.886Z,-12.30
2022-12-18T06:23:12.872Z,-12.30
2022-12-18T06:25:40.605Z,-12.40
2022-12-18T06:28:07.550Z,-12.40
2022-12-18T06:30:34.485Z,-12.40
2022-12-18T06:33:01.497Z,-12.40
2022-12-18T06:35:28.381Z,-12.40
2022-12-18T06:37:55.648Z,-12.40
2022-12-18T06:40:22.653Z,-12.40
2022-12-18T06:42:49.674Z,-12.40
2022-12-18T06:45:16.948Z,-12.40
2022-12-18T06:47:44.195Z,-12.30
2022-12-18T06:50:11.603Z,-12.40
2022-12-18T06:52:40.004Z,-12.40
2022-12-18T06:55:10.992Z,-12.40
2022-12-18T06:57:38.861Z,-12.50
2022-12-18T07:00:07.636Z,-12.50
2022-12-18T07:02:34.831Z,-12.50
2022-12-18T07:05:07.480Z,-12.50
2022-12-18T07:07:37.438Z,-12.40
2022-12-18T07:10:04.689Z,-12.40
2022-12-18T07:12:31.651Z,-12.40
2022-12-18T07:14:58.609Z,-12.30
2022-12-18T07:17:25.579Z,-12.20
2022-12-18T07:19:52.551Z,-12.10
2022-12-18T07:22:19.455Z,-12.10
2022-12-18T07:24:46.402Z,-12.00
2022-12-18T07:27:13.329Z,-12.00
2022-12-18T07:29:40.593Z,-11.90
2022-12-18T07:32:08.197Z,-11.90
2022-12-18T07:34:35.882Z,-11.80
2022-12-18T07:37:03.633Z,-11.80
2022-12-18T07:39:30.547Z,-11.70
2022-12-18T07:42:16.531Z,-11.60
2022-12-18T07:44:43.598Z,-11.50
2022-12-18T07:47:12.179Z,-11.40
2022-12-18T07:49:39.587Z,-11.30
2022-12-18T07:52:06.837Z,-11.20
2022-12-18T07:54:33.716Z,-11.10
2022-12-18T07:57:16.418Z,-11.00
2022-12-18T07:59:53.382Z,-11.00
2022-12-18T08:02:20.459Z,-10.90
2022-12-18T08:04:48.909Z,-10.90
2022-12-18T08:07:15.910Z,-10.80
2022-12-18T08:09:42.900Z,-10.80
2022-12-18T08:12:09.877Z,-10.70
2022-12-18T08:14:36.842Z,-10.60
2022-12-18T08:17:04.024Z,-10.50
2022-12-18T08:19:31.031Z,-10.40
2022-12-18T08:21:58.165Z,-10.30
2022-12-18T08:24:25.138Z,-10.20
2022-12-18T08:27:20.804Z,-10.10
2022-12-18T08:29:45.593Z,-10.00
2022-12-18T08:32:12.628Z,-9.90
2022-12-18T08:34:39.663Z,-9.90
2022-12-18T08:37:07.415Z,-9.80
2022-12-18T08:39:35.711Z,-9.70
2022-12-18T08:42:21.464Z,-9.70
2022-12-18T08:44:48.470Z,-9.60
2022-12-18T08:47:15.454Z,-9.50
2022-12-18T08:49:42.406Z,-9.40
2022-12-18T08:52:10.041Z,-9.30
2022-12-18T08:54:37.016Z,-9.20
2022-12-18T08:57:04.131Z,-9.10
2022-12-18T08:59:31.099Z,-9.00
2022-12-18T09:01:58.253Z,-8.90
2022-12-18T09:04:25.339Z,-8.80
2022-12-18T09:06:52.312Z,-8.60
2022-12-18T09:09:19.282Z,-8.40
2022-12-18T09:11:46.594Z,-8.30
2022-12-18T09:14:13.609Z,-8.20
2022-12-18T09:16:40.771Z,-8.00
2022-12-18T09:19:07.988Z,-7.90
2022-12-18T09:21:42.218Z,-7.70
2022-12-18T09:24:14.607Z,-7.60
2022-12-18T09:26:41.659Z,-7.50
2022-12-18T09:29:10.794Z,-7.40
2022-12-18T09:31:39.229Z,-7.30
2022-12-18T09:34:06.375Z,-7.30
2022-12-18T09:36:33.305Z,-7.20
2022-12-18T09:39:03.858Z,-7.10
2022-12-18T09:41:58.085Z,-7.00
2022-12-18T09:44:29.289Z,-7.00
2022-12-18T09:47:21.356Z,-6.90
2022-12-18T09:50:00.234Z,-6.80
2022-12-18T09:52:34.490Z,-6.70
2022-12-18T09:55:37.420Z,-6.50
2022-12-18T09:58:32.417Z,-6.40
2022-12-18T10:00:59.770Z,-6.30
2022-12-18T10:03:27.750Z,-6.20
2022-12-18T10:06:23.932Z,-6.00
2022-12-18T10:08:55.877Z,-5.90
2022-12-18T10:11:47.584Z,-5.80
2022-12-18T10:14:43.737Z,-5.60
2022-12-18T10:17:13.396Z,-5.50
2022-12-18T10:19:57.609Z,-5.40
2022-12-18T10:22:27.770Z,-5.30
2022-12-18T10:25:24.938Z,-5.20
2022-12-18T10:27:57.613Z,-5.20
2022-12-18T10:30:26.422Z,-5.20
2022-12-18T10:32:53.716Z,-5.20
2022-12-18T10:35:26.716Z,-5.10
2022-12-18T10:38:18.048Z,-5.20
2022-12-18T10:41:06.667Z,-5.10
2022-12-18T10:43:36.592Z,-5.00
2022-12-18T10:46:08.769Z,-5.00
2022-12-18T10:48:48.046Z,-5.00
2022-12-18T10:51:41.417Z,-5.00
2022-12-18T10:54:18.269Z,-5.00
2022-12-18T10:56:45.944Z,-5.00
2022-12-18T10:59:16.801Z,-5.00
2022-12-18T11:02:01.711Z,-5.00
2022-12-18T11:04:32.164Z,-5.00
2022-12-18T11:07:10.133Z,-4.90
2022-12-18T11:09:39.572Z,-4.90
2022-12-18T11:12:29.587Z,-4.90
2022-12-18T11:15:01.188Z,-4.90
2022-12-18T11:17:32.206Z,-4.80
2022-12-18T11:20:04.449Z,-4.80
2022-12-18T11:22:39.464Z,-4.80
2022-12-18T11:28:27.226Z,-4.70
2022-12-18T11:31:12.896Z,-4.70
2022-12-18T11:33:58.358Z,-4.70
2022-12-18T11:36:48.192Z,-4.70
2022-12-18T11:39:36.687Z,-4.80
2022-12-18T11:42:14.336Z,-4.80
2022-12-18T11:44:52.688Z,-4.80
2022-12-18T11:47:26.764Z,-4.80
2022-12-18T11:49:56.546Z,-4.80
2022-12-18T11:52:44.642Z,-4.80
2022-12-18T11:55:17.671Z,-4.90
2022-12-18T11:57:47.456Z,-4.80
2022-12-18T12:00:22.084Z,-4.80
2022-12-18T12:03:07.516Z,-4.80
2022-12-18T12:05:43.067Z,-4.80
2022-12-18T12:08:21.873Z,-4.90
2022-12-18T12:10:55.041Z,-4.90
2022-12-18T12:13:43.662Z,-4.90
2022-12-18T12:16:44.240Z,-4.90
2022-12-18T12:19:34.824Z,-4.90
2022-12-18T12:22:19.896Z,-5.00
2022-12-18T12:25:02.132Z,-5.00
2022-12-18T12:27:49.236Z,-5.10
2022-12-18T12:30:31.830Z,-5.10
2022-12-18T12:33:27.914Z,-5.20
2022-12-18T12:36:20.653Z,-5.30
2022-12-18T12:38:56.287Z,-5.40
2022-12-18T12:41:46.318Z,-5.50
2022-12-18T12:44:37.352Z,-5.50
2022-12-18T12:47:20.354Z,-5.70
2022-12-18T12:49:50.000Z,-5.70
2022-12-18T12:52:32.207Z,-5.80
2022-12-18T12:55:00.063Z,-5.90
2022-12-18T12:57:41.411Z,-6.00
2022-12-18T13:00:17.757Z,-6.00
2022-12-18T13:03:13.384Z,-6.10
2022-12-18T13:05:46.677Z,-6.10
2022-12-18T13:08:30.071Z,-6.20
2022-12-18T13:11:18.904Z,-6.20
2022-12-18T13:13:55.599Z,-6.30
2022-12-18T13:16:25.243Z,-6.30
2022-12-18T13:18:55.530Z,-6.40
2022-12-18T13:21:32.079Z,-6.40
2022-12-18T13:24:21.372Z,-6.40
2022-12-18T13:26:49.634Z,-6.40
2022-12-18T13:29:44.601Z,-6.40
2022-12-18T13:32:23.183Z,-6.50
2022-12-18T13:35:31.455Z,-6.50
2022-12-18T13:37:58.906Z,-6.50
2022-12-18T13:40:40.857Z,-6.40
2022-12-18T13:43:55.673Z,-6.50
2022-12-18T13:46:44.911Z,-6.60
2022-12-18T13:49:15.056Z,-6.60
2022-12-18T13:51:49.582Z,-6.60
2022-12-18T13:54:23.718Z,-6.70
2022-12-18T13:56:50.731Z,-6.70
2022-12-18T13:59:18.623Z,-6.80
2022-12-18T14:01:55.800Z,-6.90
2022-12-18T14:04:34.893Z,-6.90
2022-12-18T14:07:29.228Z,-7.00
2022-12-18T14:10:40.818Z,-7.00
2022-12-18T14:13:02.180Z,-7.00
2022-12-18T14:15:41.360Z,-7.00
2022-12-18T14:18:34.596Z,-7.00
2022-12-18T14:21:04.306Z,-7.00
2022-12-18T14:23:39.208Z,-6.90
2022-12-18T14:26:31.901Z,-6.90
2022-12-18T14:29:02.466Z,-6.90
2022-12-18T14:31:30.553Z,-6.90
2022-12-18T14:33:57.880Z,-6.90
2022-12-18T14:36:27.567Z,-6.90
2022-12-18T14:41:24.759Z,-7.00
2022-12-18T14:43:54.165Z,-7.00
2022-12-18T14:46:40.036Z,-6.90
2022-12-18T14:49:30.486Z,-6.90
2022-12-18T14:52:04.341Z,-6.90
2022-12-18T14:54:33.145Z,-6.80
2022-12-18T14:57:25.267Z,-6.90
2022-12-18T14:59:52.539Z,-6.80
2022-12-18T15:02:28.570Z,-6.80
2022-12-18T15:05:19.046Z,-6.60
2022-12-18T15:07:48.680Z,-6.60
2022-12-18T15:10:17.870Z,-6.60
2022-12-18T15:12:47.747Z,-6.60
2022-12-18T15:15:41.633Z,-6.60
2022-12-18T15:18:08.871Z,-6.50
2022-12-18T15:20:49.162Z,-6.50
2022-12-18T15:23:46.386Z,-6.30
2022-12-18T15:26:15.689Z,-6.30
2022-12-18T15:28:53.238Z,-6.20
2022-12-18T15:31:32.554Z,-6.20
2022-12-18T15:34:00.620Z,-6.10
2022-12-18T15:36:30.901Z,-6.00
2022-12-18T15:39:04.842Z,-5.80
2022-12-18T15:41:35.265Z,-5.60
2022-12-18T15:44:04.387Z,-5.40
2022-12-18T15:46:32.186Z,-5.20
2022-12-18T15:49:02.149Z,-5.00
2022-12-18T15:51:35.606Z,-4.80
2022-12-18T15:54:05.810Z,-4.60
2022-12-18T15:56:51.183Z,-4.40
2022-12-18T15:59:20.711Z,-4.30
2022-12-18T16:01:49.953Z,-4.20
2022-12-18T16:04:21.051Z,-3.90
2022-12-18T16:07:13.868Z,-3.90
2022-12-18T16:09:35.941Z,-3.70
2022-12-18T16:12:03.195Z,-3.70
2022-12-18T16:14:31.380Z,-3.60
2022-12-18T16:17:03.764Z,-3.60
2022-12-18T16:19:31.251Z,-3.50
2022-12-18T16:21:59.533Z,-3.50
2022-12-18T16:24:29.404Z,-3.50
2022-12-18T16:26:59.882Z,-3.40
2022-12-18T16:29:28.585Z,-3.40
2022-12-18T16:31:56.987Z,-3.30
2022-12-18T16:34:29.548Z,-3.30
2022-12-18T16:37:06.041Z,-3.20
2022-12-18T16:39:35.429Z,-3.10
2022-12-18T16:42:05.938Z,-3.10
2022-12-18T16:44:34.201Z,-3.00
2022-12-18T16:47:03.184Z,-3.00
2022-12-18T16:49:30.999Z,-2.90
2022-12-18T16:51:58.200Z,-2.80
2022-12-18T16:54:25.540Z,-2.80
2022-12-18T16:59:27.292Z,-2.60
2022-12-18T17:02:01.050Z,-2.50
2022-12-18T17:04:29.137Z,-2.40
2022-12-18T17:06:56.106Z,-2.30
2022-12-18T17:09:26.316Z,-2.20
2022-12-18T17:11:54.312Z,-2.20
2022-12-18T17:14:23.572Z,-2.10
2022-12-18T17:17:07.221Z,-2.10
2022-12-18T17:19:37.950Z,-2.10
2022-12-18T17:22:05.143Z,-2.00
2022-12-18T17:24:35.097Z,-2.00
2022-12-18T17:27:03.400Z,-2.00
2022-12-18T17:29:30.529Z,-1.90
2022-12-18T17:31:58.035Z,-1.90
2022-12-18T17:34:27.105Z,-1.90
2022-12-18T17:36:54.078Z,-1.90
2022-12-18T17:39:21.692Z,-1.90
2022-12-18T17:41:49.574Z,-1.80
2022-12-18T17:44:17.684Z,-1.80
2022-12-18T17:46:46.214Z,-1.80
2022-12-18T17:49:14.204Z,-1.80
2022-12-18T17:51:43.260Z,-1.80
2022-12-18T17:54:11.236Z,-1.80
2022-12-18T17:56:39.462Z,-1.80
2022-12-18T17:59:07.234Z,-1.90
2022-12-18T18:01:36.432Z,-2.00
2022-12-18T18:04:05.853Z,-2.00
2022-12-18T18:06:33.114Z,-1.90
2022-12-18T18:09:01.779Z,-1.90
2022-12-18T18:12:04.331Z,-1.90
2022-12-18T18:14:39.670Z,-1.80
2022-12-18T18:17:07.164Z,-1.70
2022-12-18T18:19:34.499Z,-1.70
2022-12-18T18:22:03.031Z,-1.60
2022-12-18T18:24:30.909Z,-1.50
2022-12-18T18:27:00.099Z,-1.50
2022-12-18T18:29:30.519Z,-1.50
2022-12-18T18:31:57.822Z,-1.50
2022-12-18T18:34:29.277Z,-1.50
2022-12-18T18:36:59.325Z,-1.50
2022-12-18T18:39:27.017Z,-1.50
2022-12-18T18:41:54.502Z,-1.40
2022-12-18T18:44:25.963Z,-1.40
2022-12-18T18:46:57.652Z,-1.30
2022-12-18T18:49:27.663Z,-1.30
2022-12-18T18:51:56.369Z,-1.30
2022-12-18T18:54:23.751Z,-1.30
2022-12-18T18:59:37.919Z,-1.30
2022-12-18T19:02:05.278Z,-1.20
2022-12-18T19:04:34.209Z,-1.20
2022-12-18T19:07:01.562Z,-1.20
2022-12-18T19:09:28.886Z,-1.20
2022-12-18T19:12:15.167Z,-1.20
2022-12-18T19:14:42.607Z,-1.20
2022-12-18T19:17:10.133Z,-1.20
2022-12-18T19:19:37.401Z,-1.10
2022-12-18T19:22:07.173Z,-1.10
2022-12-18T19:24:34.245Z,-1.00
2022-12-18T19:27:01.558Z,-1.00
2022-12-18T19:29:28.603Z,-1.00
2022-12-18T19:31:55.640Z,-0.90
2022-12-18T19:34:22.619Z,-0.90
2022-12-18T19:36:49.569Z,-0.90
2022-12-18T19:39:19.231Z,-0.90
2022-12-18T19:41:46.955Z,-0.90
2022-12-18T19:44:16.062Z,-0.80
2022-12-18T19:46:43.739Z,-0.70
2022-12-18T19:49:38.446Z,-0.70
2022-12-18T19:51:58.982Z,-0.70
2022-12-18T19:54:26.173Z,-0.70
2022-12-18T19:56:53.528Z,-0.60
2022-12-18T19:59:20.622Z,-0.60
2022-12-18T20:01:47.791Z,-0.60
2022-12-18T20:04:15.048Z,-0.60
2022-12-18T20:06:51.437Z,-0.60
2022-12-18T20:09:19.421Z,-0.50
2022-12-18T20:11:47.850Z,-0.50
2022-12-18T20:14:19.626Z,-0.40
2022-12-18T20:16:50.582Z,-0.40
2022-12-18T20:19:17.856Z,-0.40
2022-12-18T20:21:44.993Z,-0.40
2022-12-18T20:24:12.387Z,-0.40
2022-12-18T20:26:40.592Z,-0.40
2022-12-18T20:29:07.527Z,-0.30
2022-12-18T20:31:35.030Z,-0.30
2022-12-18T20:34:03.789Z,-0.30
2022-12-18T20:36:35.222Z,-0.30
2022-12-18T20:41:38.187Z,-0.30
2022-12-18T20:44:22.455Z,-0.30
2022-12-18T20:46:56.867Z,-0.40
2022-12-18T20:49:25.575Z,-0.40
2022-12-18T20:51:57.364Z,-0.30
2022-12-18T20:54:26.449Z,-0.30
2022-12-18T20:56:53.522Z,-0.30
2022-12-18T20:59:20.673Z,-0.40
2022-12-18T21:01:48.239Z,-0.40
2022-12-18T21:04:18.328Z,-0.40
2022-12-18T21:06:51.396Z,-0.40
2022-12-18T21:09:20.519Z,-0.40
2022-12-18T21:12:05.904Z,-0.40
2022-12-18T21:14:33.016Z,-0.30
2022-12-18T21:17:02.145Z,-0.30
2022-12-18T21:19:29.743Z,-0.30
2022-12-18T21:21:57.537Z,-0.30
2022-12-18T21:24:25.197Z,-0.20
2022-12-18T21:26:52.719Z,-0.20
2022-12-18T21:29:25.671Z,-0.10
2022-12-18T21:31:54.866Z,-0.10
2022-12-18T21:34:27.982Z,-0.10
2022-12-18T21:36:57.429Z,0.00
2022-12-18T21:39:25.806Z,0.00
2022-12-18T21:42:11.338Z,0.00
2022-12-18T21:44:41.466Z,0.00
2022-12-18T21:47:21.412Z,0.10
2022-12-18T21:49:53.409Z,0.10
2022-12-18T21:52:26.297Z,0.10
2022-12-18T21:55:01.866Z,0.10
2022-12-18T21:57:33.426Z,0.10
2022-12-18T22:00:00.428Z,0.10
2022-12-18T22:02:27.478Z,0.10
2022-12-18T22:04:54.558Z,0.10
2022-12-18T22:07:21.555Z,0.10
2022-12-18T22:09:50.050Z,0.10
2022-12-18T22:12:35.512Z,0.10
2022-12-18T22:15:08.052Z,0.20
2022-12-18T22:17:35.002Z,0.20
2022-12-18T22:20:01.965Z,0.10
2022-12-18T22:22:28.932Z,0.20
2022-12-18T22:24:55.885Z,0.10
2022-12-18T22:27:22.789Z,0.10
2022-12-18T22:30:04.675Z,0.10
2022-12-18T22:32:33.529Z,0.10
2022-12-18T22:35:09.207Z,0.10
2022-12-18T22:37:39.965Z,-0.20
2022-12-18T22:40:07.625Z,0.10
2022-12-18T22:42:35.622Z,0.10
2022-12-18T22:45:07.491Z,0.10
2022-12-18T22:47:34.407Z,0.20
2022-12-18T22:50:01.318Z,0.00
2022-12-18T22:52:28.242Z,0.00
2022-12-18T22:54:55.203Z,0.00
2022-12-18T22:57:23.310Z,0.00
2022-12-18T22:59:50.942Z,0.00
2022-12-18T23:02:19.076Z,0.00
2022-12-18T23:04:47.753Z,0.00
2022-12-18T23:07:15.705Z,-0.10
2022-12-18T23:09:42.678Z,0.00
2022-12-18T23:12:19.507Z,-0.10
2022-12-18T23:14:47.405Z,-0.10
2022-12-18T23:17:14.417Z,0.00
2022-12-18T23:19:47.097Z,-0.10
2022-12-18T23:22:15.992Z,-0.10
2022-12-18T23:24:42.915Z,0.00
2022-12-18T23:27:11.928Z,-0.10
2022-12-18T23:29:40.133Z,0.00
2022-12-18T23:32:08.044Z,0.00
2022-12-18T23:34:34.987Z,0.10
2022-12-18T23:37:03.867Z,0.10
2022-12-18T23:39:30.963Z,0.10
2022-12-18T23:41:58.923Z,0.00
2022-12-18T23:44:26.112Z,0.10
2022-12-18T23:46:53.469Z,0.10
2022-12-18T23:49:20.482Z,0.10
2022-12-18T23:51:47.571Z,0.10
2022-12-18T23:54:14.534Z,0.10
2022-12-18T23:56:41.484Z,0.10
2022-12-18T23:59:08.413Z,0.10
